createdAt,value
2018-07-12T00:02:01.601Z,16.70
2018-07-12T00:04:28.928Z,16.53
2018-07-12T00:06:56.565Z,16.70
2018-07-12T00:09:23.924Z,17.93
2018-07-12T00:11:51.251Z,17.60
2018-07-12T00:14:18.613Z,18.73
2018-07-12T00:16:46.221Z,17.67
2018-07-12T00:19:13.860Z,19.73
2018-07-12T00:21:41.204Z,18.63
2018-07-12T00:24:08.812Z,19.40
2018-07-12T00:26:36.164Z,19.10
2018-07-12T00:29:03.500Z,18.33
2018-07-12T00:31:30.820Z,18.87
2018-07-12T00:33:58.147Z,19.80
2018-07-12T00:36:25.485Z,19.77
2018-07-12T00:38:52.815Z,21.13
2018-07-12T00:41:20.133Z,19.87
2018-07-12T00:43:47.502Z,19.13
2018-07-12T00:46:14.844Z,20.63
2018-07-12T00:48:42.200Z,20.80
2018-07-12T00:51:09.660Z,19.37
2018-07-12T00:53:36.983Z,21.27
2018-07-12T00:56:04.335Z,21.73
2018-07-12T00:58:31.684Z,21.80
2018-07-12T01:00:59.016Z,19.33
2018-07-12T01:03:26.353Z,21.47
2018-07-12T01:05:53.691Z,22.37
2018-07-12T01:08:21.029Z,20.50
2018-07-12T01:10:48.695Z,20.70
2018-07-12T01:13:15.992Z,20.33
2018-07-12T01:15:43.302Z,19.90
2018-07-12T01:18:10.660Z,22.43
2018-07-12T01:20:37.993Z,20.23
2018-07-12T01:23:05.297Z,20.97
2018-07-12T01:25:32.576Z,19.83
2018-07-12T01:27:59.904Z,21.13
2018-07-12T01:30:27.209Z,20.73
2018-07-12T01:32:54.760Z,21.90
2018-07-12T01:35:22.132Z,21.60
2018-07-12T01:37:49.410Z,20.33
2018-07-12T01:40:16.755Z,22.63
2018-07-12T01:42:44.076Z,22.67
2018-07-12T01:45:11.385Z,23.10
2018-07-12T01:47:38.706Z,22.50
2018-07-12T01:50:06.028Z,22.03
2018-07-12T01:52:33.339Z,22.77
2018-07-12T01:55:00.616Z,21.70
2018-07-12T01:57:27.926Z,22.60
2018-07-12T01:59:55.220Z,21.87
2018-07-12T02:02:22.566Z,21.83
2018-07-12T02:04:50.279Z,22.90
2018-07-12T02:07:17.624Z,22.43
2018-07-12T02:09:44.976Z,23.47
2018-07-12T02:12:12.271Z,23.60
2018-07-12T02:14:39.583Z,24.90
2018-07-12T02:17:07.234Z,25.00
2018-07-12T02:19:34.590Z,23.43
2018-07-12T02:22:01.857Z,24.17
2018-07-12T02:24:29.198Z,24.67
2018-07-12T02:26:56.500Z,23.60
2018-07-12T02:29:24.019Z,22.57
2018-07-12T02:31:51.333Z,22.97
2018-07-12T02:34:19.033Z,22.77
2018-07-12T02:36:46.702Z,21.70
2018-07-12T02:39:14.060Z,23.47
2018-07-12T02:41:41.741Z,23.87
2018-07-12T02:44:09.421Z,22.40
2018-07-12T02:46:37.167Z,22.87
2018-07-12T02:49:04.853Z,23.57
2018-07-12T02:51:32.442Z,21.57
2018-07-12T02:54:00.559Z,23.40
2018-07-12T02:56:27.860Z,23.13
2018-07-12T02:58:55.169Z,22.23
2018-07-12T03:01:22.496Z,24.80
2018-07-12T03:03:49.800Z,26.47
2018-07-12T03:06:17.140Z,24.60
2018-07-12T03:08:44.473Z,24.30
2018-07-12T03:11:11.804Z,24.90
2018-07-12T03:13:39.339Z,24.63
2018-07-12T03:16:06.630Z,25.40
2018-07-12T03:18:33.966Z,24.60
2018-07-12T03:21:01.248Z,24.70
2018-07-12T03:23:28.551Z,24.97
2018-07-12T03:25:56.109Z,26.13
2018-07-12T03:28:23.444Z,23.53
2018-07-12T03:30:51.029Z,26.10
2018-07-12T03:33:18.801Z,24.03
2018-07-12T03:35:46.525Z,23.77
2018-07-12T03:38:13.955Z,24.00
2018-07-12T03:40:41.307Z,26.37
2018-07-12T03:43:08.640Z,25.20
2018-07-12T03:45:36.012Z,24.23
2018-07-12T03:48:03.347Z,26.27
2018-07-12T03:50:30.691Z,25.60
2018-07-12T03:52:58.018Z,26.20
2018-07-12T03:55:25.315Z,25.07
2018-07-12T03:57:52.591Z,25.43
2018-07-12T04:00:19.925Z,25.17
2018-07-12T04:02:47.274Z,25.43
2018-07-12T04:05:14.912Z,25.80
2018-07-12T04:07:42.497Z,25.73
2018-07-12T04:10:09.801Z,26.17
2018-07-12T04:12:37.104Z,24.47
2018-07-12T04:15:04.476Z,25.40
2018-07-12T04:17:32.843Z,25.53
2018-07-12T04:20:01.452Z,27.03
2018-07-12T04:22:30.929Z,27.10
2018-07-12T04:24:58.263Z,27.03
2018-07-12T04:27:25.841Z,25.90
2018-07-12T04:29:54.528Z,23.90
2018-07-12T04:32:21.814Z,23.47
2018-07-12T04:34:49.818Z,24.10
2018-07-12T04:37:17.387Z,22.20
2018-07-12T04:39:44.889Z,21.83
2018-07-12T04:42:12.492Z,23.47
2018-07-12T04:44:40.142Z,22.50
2018-07-12T04:47:07.504Z,23.40
2018-07-12T04:49:34.996Z,21.40
2018-07-12T04:52:02.305Z,23.07
2018-07-12T04:54:29.704Z,22.73
2018-07-12T04:56:57.049Z,20.67
2018-07-12T04:59:24.892Z,20.00
2018-07-12T05:01:52.187Z,19.73
2018-07-12T05:04:19.488Z,18.80
2018-07-12T05:06:46.860Z,19.83
2018-07-12T05:09:14.558Z,21.03
2018-07-12T05:11:42.123Z,20.33
2018-07-12T05:14:09.411Z,18.97
2018-07-12T05:16:36.703Z,19.33
2018-07-12T05:19:04.028Z,19.40
2018-07-12T05:21:32.058Z,18.80
2018-07-12T05:23:59.360Z,18.70
2018-07-12T05:26:26.655Z,18.40
2018-07-12T05:28:53.959Z,18.10
2018-07-12T05:31:21.253Z,20.87
2018-07-12T05:33:48.516Z,20.93
2018-07-12T05:36:22.777Z,20.23
2018-07-12T05:38:51.264Z,19.83
2018-07-12T05:41:19.620Z,19.87
2018-07-12T05:43:48.045Z,20.87
2018-07-12T05:46:16.791Z,20.07
2018-07-12T05:48:45.423Z,20.20
2018-07-12T05:51:14.163Z,18.47
2018-07-12T05:53:42.564Z,18.43
2018-07-12T05:56:10.975Z,21.40
2018-07-12T05:58:39.365Z,21.53
2018-07-12T06:01:17.956Z,20.57
2018-07-12T06:03:46.277Z,20.73
2018-07-12T06:06:14.396Z,21.77
2018-07-12T06:08:42.774Z,20.87
2018-07-12T06:11:11.212Z,20.40
2018-07-12T06:13:39.930Z,20.23
2018-07-12T06:16:08.328Z,19.77
2018-07-12T06:18:36.999Z,20.37
2018-07-12T06:21:05.426Z,20.10
2018-07-12T06:23:33.902Z,19.50
2018-07-12T06:26:02.354Z,18.67
2018-07-12T06:28:31.419Z,19.27
2018-07-12T06:30:59.888Z,18.17
2018-07-12T06:33:28.772Z,18.00
2018-07-12T06:35:57.468Z,17.50
2018-07-12T06:38:26.781Z,18.17
2018-07-12T06:40:55.238Z,17.67
2018-07-12T06:43:23.653Z,17.33
2018-07-12T06:45:52.409Z,18.30
2018-07-12T06:48:21.111Z,18.00
2018-07-12T06:50:49.533Z,17.13
2018-07-12T06:53:17.892Z,17.83
2018-07-12T06:55:46.303Z,17.40
2018-07-12T06:58:14.716Z,16.60
2018-07-12T07:00:43.503Z,15.53
2018-07-12T07:03:12.154Z,15.80
2018-07-12T07:05:40.576Z,14.30
2018-07-12T07:08:08.979Z,16.70
2018-07-12T07:10:37.429Z,14.43
2018-07-12T07:13:06.078Z,13.53
2018-07-12T07:15:34.493Z,14.17
2018-07-12T07:18:02.921Z,15.37
2018-07-12T07:20:31.586Z,14.73
2018-07-12T07:23:00.032Z,15.10
2018-07-12T07:25:28.816Z,14.90
2018-07-12T07:27:57.206Z,14.13
2018-07-12T07:30:25.589Z,14.00
2018-07-12T07:32:54.381Z,14.10
2018-07-12T07:35:22.837Z,14.50
2018-07-12T07:37:51.564Z,14.87
2018-07-12T07:40:19.952Z,13.70
2018-07-12T07:42:48.403Z,12.83
2018-07-12T07:45:16.852Z,11.63
2018-07-12T07:47:45.288Z,13.33
2018-07-12T07:50:13.739Z,13.03
2018-07-12T07:52:42.172Z,13.23
2018-07-12T07:55:10.565Z,12.77
2018-07-12T07:57:39.043Z,13.00
2018-07-12T08:00:07.479Z,11.70
2018-07-12T08:02:35.952Z,13.03
2018-07-12T08:05:04.438Z,12.87
2018-07-12T08:07:32.914Z,12.60
2018-07-12T08:10:01.344Z,12.40
2018-07-12T08:12:29.730Z,13.57
2018-07-12T08:14:58.239Z,13.33
2018-07-12T08:17:26.366Z,11.47
2018-07-12T08:19:54.801Z,11.93
2018-07-12T08:22:22.919Z,13.60
2018-07-12T08:24:51.316Z,12.80
2018-07-12T08:27:20.038Z,12.97
2018-07-12T08:29:48.414Z,13.03
2018-07-12T08:32:17.442Z,13.07
2018-07-12T08:34:47.017Z,13.13
2018-07-12T08:37:15.433Z,12.70
2018-07-12T08:39:43.804Z,12.13
2018-07-12T08:42:12.193Z,10.97
2018-07-12T08:44:40.651Z,10.93
2018-07-12T08:47:08.943Z,9.20
2018-07-12T08:49:37.381Z,8.73
2018-07-12T08:52:05.768Z,9.03
2018-07-12T08:54:34.336Z,9.33
2018-07-12T08:57:02.934Z,8.80
2018-07-12T08:59:31.376Z,8.80
2018-07-12T09:02:00.356Z,8.90
2018-07-12T09:04:28.777Z,9.47
2018-07-12T09:06:57.212Z,9.23
2018-07-12T09:09:26.007Z,9.00
2018-07-12T09:11:54.892Z,9.60
2018-07-12T09:14:24.799Z,9.13
2018-07-12T09:16:54.930Z,9.20
2018-07-12T09:19:23.348Z,8.47
2018-07-12T09:21:51.551Z,8.80
2018-07-12T09:24:20.644Z,9.20
2018-07-12T09:26:49.671Z,8.53
2018-07-12T09:29:18.509Z,8.50
2018-07-12T09:31:46.938Z,7.30
2018-07-12T09:34:15.590Z,7.63
2018-07-12T09:36:44.009Z,8.77
2018-07-12T09:39:12.640Z,8.13
2018-07-12T09:41:41.341Z,7.20
2018-07-12T09:44:09.757Z,6.97
2018-07-12T09:46:38.147Z,7.87
2018-07-12T09:49:06.592Z,7.23
2018-07-12T09:51:35.264Z,7.67
2018-07-12T09:54:03.948Z,6.50
2018-07-12T09:56:43.789Z,9.13
2018-07-12T09:59:12.045Z,10.77
2018-07-12T10:01:45.886Z,10.83
2018-07-12T10:04:14.299Z,9.83
2018-07-12T10:06:48.120Z,9.50
2018-07-12T10:09:21.755Z,9.30
2018-07-12T10:11:55.642Z,9.50
2018-07-12T10:14:29.569Z,8.77
2018-07-12T10:17:03.439Z,7.87
2018-07-12T10:19:32.102Z,7.33
2018-07-12T10:22:00.555Z,6.77
2018-07-12T10:24:29.065Z,6.40
2018-07-12T10:26:57.505Z,6.70
2018-07-12T10:29:25.912Z,6.70
2018-07-12T10:31:54.248Z,7.10
2018-07-12T10:34:22.593Z,5.60
2018-07-12T10:36:50.984Z,6.43
2018-07-12T10:39:19.574Z,6.47
2018-07-12T10:41:48.073Z,5.83
2018-07-12T10:44:16.501Z,6.70
2018-07-12T10:46:44.881Z,6.13
2018-07-12T10:49:13.385Z,5.47
2018-07-12T10:51:41.821Z,5.70
2018-07-12T10:54:10.533Z,5.90
2018-07-12T10:56:39.031Z,5.67
2018-07-12T10:59:07.569Z,5.97
2018-07-12T11:01:35.948Z,6.03
2018-07-12T11:04:04.372Z,5.80
2018-07-12T11:06:33.048Z,5.30
2018-07-12T11:09:01.703Z,5.20
2018-07-12T11:11:30.189Z,5.40
2018-07-12T11:13:58.671Z,5.77
2018-07-12T11:16:27.436Z,4.70
2018-07-12T11:18:55.927Z,5.77
2018-07-12T11:21:24.823Z,5.00
2018-07-12T11:23:53.252Z,5.07
2018-07-12T11:26:21.696Z,4.87
2018-07-12T11:28:50.126Z,4.93
2018-07-12T11:31:18.582Z,5.30
2018-07-12T11:33:48.111Z,4.53
2018-07-12T11:36:16.533Z,4.63
2018-07-12T11:38:45.389Z,4.70
2018-07-12T11:41:13.921Z,4.67
2018-07-12T11:43:42.536Z,4.20
2018-07-12T11:47:40.377Z,5.53
2018-07-12T11:50:08.856Z,4.97
2018-07-12T11:52:37.446Z,5.40
2018-07-12T11:55:05.899Z,5.23
2018-07-12T11:57:34.333Z,6.27
2018-07-12T12:00:02.677Z,4.33
2018-07-12T12:02:32.211Z,4.30
2018-07-12T12:05:00.932Z,4.17
2018-07-12T12:07:29.385Z,3.70
2018-07-12T12:09:57.768Z,3.83
2018-07-12T12:12:26.097Z,3.80
2018-07-12T12:14:54.478Z,3.93
2018-07-12T12:17:22.851Z,4.63
2018-07-12T12:19:51.332Z,3.47
2018-07-12T12:22:19.834Z,3.87
2018-07-12T12:24:48.410Z,3.83
2018-07-12T12:27:16.846Z,4.23
2018-07-12T12:29:45.259Z,3.80
2018-07-12T12:32:13.635Z,3.63
2018-07-12T12:34:42.355Z,3.53
2018-07-12T12:37:10.733Z,3.50
2018-07-12T12:39:39.129Z,3.57
2018-07-12T12:42:07.611Z,3.30
2018-07-12T12:44:36.026Z,3.60
2018-07-12T12:47:04.745Z,3.57
2018-07-12T12:49:33.526Z,4.07
2018-07-12T12:52:02.084Z,4.43
2018-07-12T12:54:30.757Z,4.03
2018-07-12T12:56:59.095Z,3.30
2018-07-12T12:59:27.779Z,3.10
2018-07-12T13:01:56.551Z,3.43
2018-07-12T13:04:25.085Z,2.93
2018-07-12T13:06:53.219Z,3.90
2018-07-12T13:09:21.656Z,4.10
2018-07-12T13:11:50.038Z,3.13
2018-07-12T13:14:18.116Z,3.27
2018-07-12T13:16:46.525Z,3.50
2018-07-12T13:19:15.020Z,3.20
2018-07-12T13:21:43.717Z,2.80
2018-07-12T13:24:12.172Z,2.73
2018-07-12T13:26:40.660Z,3.10
2018-07-12T13:29:09.104Z,2.87
2018-07-12T13:31:37.538Z,3.30
2018-07-12T13:34:06.039Z,2.77
2018-07-12T13:36:34.431Z,3.40
2018-07-12T13:39:02.863Z,3.67
2018-07-12T13:41:31.304Z,3.73
2018-07-12T13:44:11.102Z,3.17
2018-07-12T13:46:39.678Z,3.47
2018-07-12T13:49:08.159Z,3.03
2018-07-12T13:51:37.167Z,3.30
2018-07-12T13:54:06.008Z,3.80
2018-07-12T13:56:34.435Z,3.73
2018-07-12T13:59:02.662Z,3.77
2018-07-12T14:01:31.329Z,4.37
2018-07-12T14:03:59.893Z,3.80
2018-07-12T14:06:28.842Z,3.40
2018-07-12T14:08:57.303Z,3.37
2018-07-12T14:11:25.683Z,3.20
2018-07-12T14:13:54.484Z,3.90
2018-07-12T14:16:23.351Z,4.03
2018-07-12T14:18:52.173Z,4.20
2018-07-12T14:21:20.540Z,4.53
2018-07-12T14:23:49.696Z,4.13
2018-07-12T14:26:17.938Z,3.83
2018-07-12T14:28:46.333Z,3.80
2018-07-12T14:31:16.251Z,3.17
2018-07-12T14:33:45.568Z,3.03
2018-07-12T14:36:13.988Z,3.07
2018-07-12T14:38:42.514Z,3.73
2018-07-12T14:41:10.891Z,3.77
2018-07-12T14:43:39.564Z,3.80
2018-07-12T14:46:08.181Z,3.70
2018-07-12T14:48:37.664Z,3.13
2018-07-12T14:51:06.054Z,3.67
2018-07-12T14:53:34.465Z,3.30
2018-07-12T14:56:02.972Z,3.73
2018-07-12T14:58:31.468Z,4.20
2018-07-12T15:00:59.556Z,3.83
2018-07-12T15:03:27.634Z,3.90
2018-07-12T15:05:56.104Z,3.57
2018-07-12T15:08:24.472Z,3.57
2018-07-12T15:10:52.922Z,4.40
2018-07-12T15:13:21.394Z,4.23
2018-07-12T15:15:50.256Z,3.50
2018-07-12T15:18:18.941Z,3.70
2018-07-12T15:20:47.369Z,3.60
2018-07-12T15:23:15.929Z,3.57
2018-07-12T15:25:44.369Z,4.00
2018-07-12T15:28:12.790Z,3.80
2018-07-12T15:30:41.191Z,3.50
2018-07-12T15:33:09.676Z,3.60
2018-07-12T15:35:38.070Z,4.00
2018-07-12T15:38:06.599Z,3.93
2018-07-12T15:40:35.113Z,3.97
2018-07-12T15:43:03.236Z,4.07
2018-07-12T15:45:31.721Z,4.20
2018-07-12T15:48:00.152Z,4.30
2018-07-12T15:50:28.325Z,4.27
2018-07-12T15:52:56.757Z,4.70
2018-07-12T15:55:25.227Z,3.67
2018-07-12T15:57:53.547Z,4.10
2018-07-12T16:00:22.004Z,3.50
2018-07-12T16:02:50.416Z,5.00
2018-07-12T16:05:18.774Z,5.77
2018-07-12T16:07:47.229Z,5.67
2018-07-12T16:10:15.542Z,3.87
2018-07-12T16:12:43.865Z,3.70
2018-07-12T16:15:12.247Z,4.73
2018-07-12T16:17:40.668Z,4.77
2018-07-12T16:20:09.077Z,5.83
2018-07-12T16:22:37.513Z,5.47
2018-07-12T16:25:06.338Z,5.53
2018-07-12T16:27:34.731Z,4.73
2018-07-12T16:30:03.120Z,5.00
2018-07-12T16:32:31.473Z,4.73
2018-07-12T16:34:59.829Z,5.20
2018-07-12T16:37:28.199Z,5.40
2018-07-12T16:39:56.568Z,5.60
2018-07-12T16:42:24.908Z,4.77
2018-07-12T16:44:53.353Z,5.07
2018-07-12T16:47:21.721Z,4.90
2018-07-12T16:49:50.105Z,4.83
2018-07-12T16:52:18.451Z,4.80
2018-07-12T16:54:47.413Z,4.97
2018-07-12T16:57:15.788Z,4.47
2018-07-12T16:59:44.211Z,5.20
2018-07-12T17:02:12.609Z,4.50
2018-07-12T17:04:40.980Z,4.77
2018-07-12T17:07:09.436Z,4.30
2018-07-12T17:09:37.766Z,4.43
2018-07-12T17:12:06.136Z,4.50
2018-07-12T17:14:34.543Z,5.00
2018-07-12T17:17:02.855Z,4.17
2018-07-12T17:19:31.245Z,4.43
2018-07-12T17:21:59.553Z,4.37
2018-07-12T17:24:27.910Z,4.43
2018-07-12T17:26:56.273Z,4.80
2018-07-12T17:29:24.621Z,4.77
2018-07-12T17:31:52.981Z,4.00
2018-07-12T17:34:21.310Z,4.73
2018-07-12T17:36:49.751Z,4.03
2018-07-12T17:39:18.112Z,3.90
2018-07-12T17:41:46.197Z,4.23
2018-07-12T17:44:14.553Z,4.03
2018-07-12T17:46:42.867Z,4.73
2018-07-12T17:49:11.212Z,4.87
2018-07-12T17:51:39.537Z,4.57
2018-07-12T17:54:07.866Z,4.83
2018-07-12T17:56:36.213Z,4.97
2018-07-12T17:59:04.586Z,4.60
2018-07-12T18:01:32.984Z,4.43
2018-07-12T18:04:01.476Z,4.93
2018-07-12T18:06:29.824Z,4.90
2018-07-12T18:08:58.240Z,4.87
2018-07-12T18:11:26.587Z,4.80
2018-07-12T18:13:54.949Z,4.70
2018-07-12T18:16:23.296Z,4.70
2018-07-12T18:18:51.647Z,4.90
2018-07-12T18:21:20.008Z,4.63
2018-07-12T18:23:48.345Z,4.67
2018-07-12T18:26:16.977Z,4.87
2018-07-12T18:28:45.035Z,4.10
2018-07-12T18:31:13.816Z,4.50
2018-07-12T18:33:42.194Z,4.47
2018-07-12T18:36:10.626Z,4.60
2018-07-12T18:38:40.566Z,4.20
2018-07-12T18:41:08.920Z,4.80
2018-07-12T18:43:37.296Z,3.87
2018-07-12T18:46:06.011Z,4.17
2018-07-12T18:48:34.359Z,4.67
2018-07-12T18:51:02.737Z,4.57
2018-07-12T18:53:31.144Z,4.30
2018-07-12T18:55:59.742Z,4.60
2018-07-12T18:58:28.046Z,4.17
2018-07-12T19:00:56.464Z,4.53
2018-07-12T19:03:24.857Z,4.07
2018-07-12T19:05:53.194Z,4.57
2018-07-12T19:08:21.647Z,4.93
2018-07-12T19:10:50.082Z,4.43
2018-07-12T19:13:18.487Z,4.53
2018-07-12T19:15:46.875Z,4.40
2018-07-12T19:18:15.317Z,4.17
2018-07-12T19:20:43.742Z,4.53
2018-07-12T19:23:12.151Z,4.53
2018-07-12T19:25:40.608Z,4.13
2018-07-12T19:28:08.930Z,4.20
2018-07-12T19:30:37.341Z,4.10
2018-07-12T19:33:05.821Z,4.50
2018-07-12T19:35:34.218Z,4.73
2018-07-12T19:38:02.889Z,4.53
2018-07-12T19:40:31.279Z,4.40
2018-07-12T19:42:59.765Z,5.17
2018-07-12T19:45:28.139Z,5.70
2018-07-12T19:47:56.461Z,5.80
2018-07-12T19:50:24.890Z,5.43
2018-07-12T19:52:53.234Z,4.80
2018-07-12T19:55:21.619Z,5.33
2018-07-12T19:57:49.932Z,5.50
2018-07-12T20:00:18.344Z,4.90
2018-07-12T20:02:46.739Z,5.23
2018-07-12T20:05:15.094Z,5.43
2018-07-12T20:07:43.514Z,5.70
2018-07-12T20:10:11.878Z,5.03
2018-07-12T20:12:40.281Z,5.97
2018-07-12T20:15:08.732Z,5.50
2018-07-12T20:24:23.495Z,5.30
2018-07-12T20:26:52.256Z,5.37
2018-07-12T20:29:20.571Z,5.63
2018-07-12T20:31:48.954Z,5.60
2018-07-12T20:34:17.313Z,5.77
2018-07-12T20:36:45.633Z,5.70
2018-07-12T20:39:14.008Z,6.33
2018-07-12T20:41:42.372Z,5.30
2018-07-12T20:44:10.765Z,5.30
2018-07-12T20:46:39.101Z,5.73
2018-07-12T20:49:07.516Z,6.00
2018-07-12T20:51:35.883Z,5.37
2018-07-12T20:54:04.278Z,6.37
2018-07-12T20:56:32.642Z,5.50
2018-07-12T20:59:00.960Z,5.93
2018-07-12T21:01:29.323Z,5.63
2018-07-12T21:05:26.894Z,5.50
2018-07-12T21:07:55.236Z,5.80
2018-07-12T21:10:23.584Z,6.03
2018-07-12T21:12:51.961Z,6.23
2018-07-12T21:15:20.345Z,6.23
2018-07-12T21:17:48.729Z,6.43
2018-07-12T21:20:17.093Z,6.50
2018-07-12T21:22:45.600Z,6.43
2018-07-12T21:25:13.948Z,6.17
2018-07-12T21:27:42.325Z,6.97
2018-07-12T21:30:11.768Z,6.63
2018-07-12T21:32:39.833Z,6.93
2018-07-12T21:35:09.072Z,6.13
2018-07-12T21:37:37.445Z,6.07
2018-07-12T21:40:05.913Z,6.33
2018-07-12T21:42:34.217Z,6.07
2018-07-12T21:45:02.616Z,6.47
2018-07-12T21:47:30.942Z,6.27
2018-07-12T21:49:59.523Z,6.07
2018-07-12T21:52:27.841Z,6.90
2018-07-12T21:54:56.189Z,6.00
2018-07-12T21:57:24.536Z,5.87
2018-07-12T21:59:52.949Z,5.03
2018-07-12T22:02:21.373Z,5.67
2018-07-12T22:04:49.724Z,5.47
2018-07-12T22:08:30.244Z,5.40
2018-07-12T22:11:02.539Z,5.43
2018-07-12T22:13:31.746Z,5.50
2018-07-12T22:16:00.328Z,5.43
2018-07-12T22:18:28.435Z,5.37
2018-07-12T22:20:56.817Z,5.07
2018-07-12T22:23:25.203Z,4.53
2018-07-12T22:25:53.516Z,5.20
2018-07-12T22:28:21.940Z,5.00
2018-07-12T22:30:50.346Z,5.63
2018-07-12T22:33:18.908Z,5.10
2018-07-12T22:35:47.271Z,5.67
2018-07-12T22:38:15.651Z,5.47
2018-07-12T22:40:43.977Z,5.77
2018-07-12T22:43:12.266Z,5.30
2018-07-12T22:45:40.622Z,6.27
2018-07-12T22:48:09.092Z,5.97
2018-07-12T22:50:37.356Z,5.90
2018-07-12T22:53:05.772Z,5.90
2018-07-12T22:55:34.137Z,6.20
2018-07-12T22:58:02.486Z,5.77
2018-07-12T23:00:30.908Z,6.33
2018-07-12T23:02:59.387Z,6.80
2018-07-12T23:05:27.568Z,5.47
2018-07-12T23:07:56.126Z,5.60
2018-07-12T23:10:24.525Z,6.07
2018-07-12T23:12:52.859Z,4.90
2018-07-12T23:15:21.317Z,5.80
2018-07-12T23:17:49.413Z,5.43
2018-07-12T23:20:17.734Z,5.50
2018-07-12T23:22:46.043Z,5.10
2018-07-12T23:25:14.366Z,5.33
2018-07-12T23:27:42.740Z,5.40
2018-07-12T23:30:11.131Z,5.60
2018-07-12T23:32:39.493Z,6.23
2018-07-12T23:35:07.867Z,5.60
2018-07-12T23:37:36.178Z,5.07
2018-07-12T23:40:04.560Z,5.30
2018-07-12T23:42:32.981Z,6.03
2018-07-12T23:45:01.358Z,5.93
2018-07-12T23:47:30.001Z,5.53
2018-07-12T23:49:58.377Z,6.00
2018-07-12T23:52:26.705Z,6.20
2018-07-12T23:54:55.102Z,6.53
2018-07-12T23:57:23.474Z,5.60
2018-07-12T23:59:51.861Z,6.17
